sensor_id;sensor_type;location;lat;lon;timestamp;P1;durP1;ratioP1;P2;durP2;ratioP2
14040;SDS011;7095;51.388;6.196;2024-02-15T00:01:09;27.33;;;12.17;;
14040;SDS011;7095;51.388;6.196;2024-02-15T00:03:38;24.60;;;12.83;;
14040;SDS011;7095;51.388;6.196;2024-02-15T00:06:07;24.70;;;12.07;;
14040;SDS011;7095;51.388;6.196;2024-02-15T00:08:36;27.03;;;12.73;;
14040;SDS011;7095;51.388;6.196;2024-02-15T00:11:04;24.87;;;12.10;;
14040;SDS011;7095;51.388;6.196;2024-02-15T00:13:32;25.07;;;12.47;;
14040;SDS011;7095;51.388;6.196;2024-02-15T00:16:02;23.40;;;13.00;;
14040;SDS011;7095;51.388;6.196;2024-02-15T00:18:31;21.07;;;13.83;;
14040;SDS011;7095;51.388;6.196;2024-02-15T00:21:01;30.80;;;12.43;;
14040;SDS011;7095;51.388;6.196;2024-02-15T00:23:30;23.13;;;13.00;;
14040;SDS011;7095;51.388;6.196;2024-02-15T00:25:59;22.60;;;12.83;;
14040;SDS011;7095;51.388;6.196;2024-02-15T00:28:28;23.63;;;13.40;;
14040;SDS011;7095;51.388;6.196;2024-02-15T00:30:56;32.67;;;14.33;;
14040;SDS011;7095;51.388;6.196;2024-02-15T00:33:25;23.97;;;14.23;;
14040;SDS011;7095;51.388;6.196;2024-02-15T00:35:53;25.93;;;14.60;;
14040;SDS011;7095;51.388;6.196;2024-02-15T00:38:23;32.80;;;15.20;;
14040;SDS011;7095;51.388;6.196;2024-02-15T00:40:52;29.97;;;14.33;;
14040;SDS011;7095;51.388;6.196;2024-02-15T00:43:21;23.70;;;13.87;;
14040;SDS011;7095;51.388;6.196;2024-02-15T00:45:49;32.20;;;14.53;;
14040;SDS011;7095;51.388;6.196;2024-02-15T00:48:18;29.00;;;13.70;;
14040;SDS011;7095;51.388;6.196;2024-02-15T00:50:46;30.87;;;14.40;;
14040;SDS011;7095;51.388;6.196;2024-02-15T00:53:15;24.07;;;12.80;;
14040;SDS011;7095;51.388;6.196;2024-02-15T00:55:46;23.90;;;11.80;;
14040;SDS011;7095;51.388;6.196;2024-02-15T00:58:14;28.10;;;12.93;;
14040;SDS011;7095;51.388;6.196;2024-02-15T01:00:43;26.33;;;12.70;;
14040;SDS011;7095;51.388;6.196;2024-02-15T01:03:11;26.67;;;11.80;;
14040;SDS011;7095;51.388;6.196;2024-02-15T01:05:40;24.03;;;12.07;;
14040;SDS011;7095;51.388;6.196;2024-02-15T01:08:08;26.87;;;12.20;;
14040;SDS011;7095;51.388;6.196;2024-02-15T01:10:37;24.47;;;12.43;;
14040;SDS011;7095;51.388;6.196;2024-02-15T01:13:07;24.40;;;12.03;;
14040;SDS011;7095;51.388;6.196;2024-02-15T01:15:36;21.67;;;11.27;;
14040;SDS011;7095;51.388;6.196;2024-02-15T01:18:06;26.77;;;12.20;;
14040;SDS011;7095;51.388;6.196;2024-02-15T01:20:34;22.77;;;10.83;;
14040;SDS011;7095;51.388;6.196;2024-02-15T01:23:03;25.50;;;11.20;;
14040;SDS011;7095;51.388;6.196;2024-02-15T01:25:34;24.47;;;10.80;;
14040;SDS011;7095;51.388;6.196;2024-02-15T01:28:03;25.90;;;10.47;;
14040;SDS011;7095;51.388;6.196;2024-02-15T01:30:33;19.40;;;9.90;;
14040;SDS011;7095;51.388;6.196;2024-02-15T01:33:02;20.00;;;9.97;;
14040;SDS011;7095;51.388;6.196;2024-02-15T01:35:31;19.93;;;10.10;;
14040;SDS011;7095;51.388;6.196;2024-02-15T01:37:59;18.13;;;9.47;;
14040;SDS011;7095;51.388;6.196;2024-02-15T01:40:28;18.93;;;9.27;;
14040;SDS011;7095;51.388;6.196;2024-02-15T01:42:56;20.03;;;9.60;;
14040;SDS011;7095;51.388;6.196;2024-02-15T01:45:25;17.13;;;8.73;;
14040;SDS011;7095;51.388;6.196;2024-02-15T01:47:56;24.93;;;9.27;;
14040;SDS011;7095;51.388;6.196;2024-02-15T01:50:25;17.10;;;8.37;;
14040;SDS011;7095;51.388;6.196;2024-02-15T01:52:55;20.30;;;8.30;;
14040;SDS011;7095;51.388;6.196;2024-02-15T01:55:26;19.17;;;8.23;;
14040;SDS011;7095;51.388;6.196;2024-02-15T01:57:55;21.60;;;9.03;;
14040;SDS011;7095;51.388;6.196;2024-02-15T02:00:24;16.67;;;8.03;;
14040;SDS011;7095;51.388;6.196;2024-02-15T02:02:56;15.37;;;7.73;;
14040;SDS011;7095;51.388;6.196;2024-02-15T02:05:30;18.30;;;8.03;;
14040;SDS011;7095;51.388;6.196;2024-02-15T02:07:59;21.70;;;8.00;;
14040;SDS011;7095;51.388;6.196;2024-02-15T02:10:31;18.73;;;7.70;;
14040;SDS011;7095;51.388;6.196;2024-02-15T02:13:00;19.57;;;7.67;;
14040;SDS011;7095;51.388;6.196;2024-02-15T02:15:31;20.27;;;7.53;;
14040;SDS011;7095;51.388;6.196;2024-02-15T02:18:01;21.97;;;7.97;;
14040;SDS011;7095;51.388;6.196;2024-02-15T02:20:29;21.30;;;7.13;;
14040;SDS011;7095;51.388;6.196;2024-02-15T02:23:01;14.37;;;7.33;;
14040;SDS011;7095;51.388;6.196;2024-02-15T02:25:36;18.33;;;6.93;;
14040;SDS011;7095;51.388;6.196;2024-02-15T02:28:05;22.20;;;7.57;;
14040;SDS011;7095;51.388;6.196;2024-02-15T02:30:35;19.20;;;7.33;;
14040;SDS011;7095;51.388;6.196;2024-02-15T02:33:04;13.30;;;6.90;;
14040;SDS011;7095;51.388;6.196;2024-02-15T02:35:34;22.57;;;7.37;;
14040;SDS011;7095;51.388;6.196;2024-02-15T02:38:03;16.67;;;6.87;;
14040;SDS011;7095;51.388;6.196;2024-02-15T02:40:32;16.77;;;6.83;;
14040;SDS011;7095;51.388;6.196;2024-02-15T02:43:03;13.00;;;6.70;;
14040;SDS011;7095;51.388;6.196;2024-02-15T02:45:35;20.07;;;7.73;;
14040;SDS011;7095;51.388;6.196;2024-02-15T02:48:04;11.43;;;6.33;;
14040;SDS011;7095;51.388;6.196;2024-02-15T02:50:33;14.90;;;7.80;;
14040;SDS011;7095;51.388;6.196;2024-02-15T02:53:02;18.17;;;8.10;;
14040;SDS011;7095;51.388;6.196;2024-02-15T02:55:32;16.83;;;7.10;;
14040;SDS011;7095;51.388;6.196;2024-02-15T02:58:00;17.43;;;7.40;;
14040;SDS011;7095;51.388;6.196;2024-02-15T03:00:30;16.33;;;6.87;;
14040;SDS011;7095;51.388;6.196;2024-02-15T03:02:59;16.07;;;6.93;;
14040;SDS011;7095;51.388;6.196;2024-02-15T03:05:27;21.77;;;7.40;;
14040;SDS011;7095;51.388;6.196;2024-02-15T03:07:56;13.90;;;6.37;;
14040;SDS011;7095;51.388;6.196;2024-02-15T03:10:24;15.83;;;5.80;;
14040;SDS011;7095;51.388;6.196;2024-02-15T03:12:53;18.03;;;6.00;;
14040;SDS011;7095;51.388;6.196;2024-02-15T03:15:22;16.07;;;6.00;;
14040;SDS011;7095;51.388;6.196;2024-02-15T03:17:52;16.90;;;6.13;;
14040;SDS011;7095;51.388;6.196;2024-02-15T03:20:19;18.60;;;6.27;;
14040;SDS011;7095;51.388;6.196;2024-02-15T03:22:50;12.10;;;5.43;;
14040;SDS011;7095;51.388;6.196;2024-02-15T03:25:20;13.90;;;5.20;;
14040;SDS011;7095;51.388;6.196;2024-02-15T03:27:50;15.50;;;5.30;;
14040;SDS011;7095;51.388;6.196;2024-02-15T03:30:20;18.33;;;5.60;;
14040;SDS011;7095;51.388;6.196;2024-02-15T03:32:49;11.10;;;5.00;;
14040;SDS011;7095;51.388;6.196;2024-02-15T03:35:21;18.90;;;5.27;;
14040;SDS011;7095;51.388;6.196;2024-02-15T03:37:50;14.10;;;5.27;;
14040;SDS011;7095;51.388;6.196;2024-02-15T03:40:20;15.97;;;5.50;;
14040;SDS011;7095;51.388;6.196;2024-02-15T03:42:51;15.90;;;5.10;;
14040;SDS011;7095;51.388;6.196;2024-02-15T03:45:19;14.20;;;4.87;;
14040;SDS011;7095;51.388;6.196;2024-02-15T03:47:52;16.80;;;5.50;;
14040;SDS011;7095;51.388;6.196;2024-02-15T03:50:22;13.50;;;4.90;;
14040;SDS011;7095;51.388;6.196;2024-02-15T03:52:51;15.83;;;5.90;;
14040;SDS011;7095;51.388;6.196;2024-02-15T03:55:19;11.97;;;4.53;;
14040;SDS011;7095;51.388;6.196;2024-02-15T03:57:49;16.27;;;5.20;;
14040;SDS011;7095;51.388;6.196;2024-02-15T04:00:18;16.43;;;4.90;;
14040;SDS011;7095;51.388;6.196;2024-02-15T04:02:49;11.90;;;4.80;;
14040;SDS011;7095;51.388;6.196;2024-02-15T04:05:18;16.33;;;5.10;;
14040;SDS011;7095;51.388;6.196;2024-02-15T04:07:51;17.17;;;4.57;;
14040;SDS011;7095;51.388;6.196;2024-02-15T04:10:20;11.77;;;4.77;;
14040;SDS011;7095;51.388;6.196;2024-02-15T04:12:56;10.00;;;4.23;;
14040;SDS011;7095;51.388;6.196;2024-02-15T04:15:25;14.00;;;4.27;;
14040;SDS011;7095;51.388;6.196;2024-02-15T04:17:54;13.33;;;4.13;;
14040;SDS011;7095;51.388;6.196;2024-02-15T04:20:24;9.03;;;4.07;;
14040;SDS011;7095;51.388;6.196;2024-02-15T04:22:54;12.07;;;4.50;;
14040;SDS011;7095;51.388;6.196;2024-02-15T04:25:24;10.20;;;4.20;;
14040;SDS011;7095;51.388;6.196;2024-02-15T04:27:55;11.90;;;4.10;;
14040;SDS011;7095;51.388;6.196;2024-02-15T04:30:24;14.83;;;3.73;;
14040;SDS011;7095;51.388;6.196;2024-02-15T04:32:53;11.90;;;4.00;;
14040;SDS011;7095;51.388;6.196;2024-02-15T04:35:21;12.47;;;4.33;;
14040;SDS011;7095;51.388;6.196;2024-02-15T04:37:50;14.63;;;3.30;;
14040;SDS011;7095;51.388;6.196;2024-02-15T04:40:21;10.93;;;3.53;;
14040;SDS011;7095;51.388;6.196;2024-02-15T04:42:49;12.17;;;3.53;;
14040;SDS011;7095;51.388;6.196;2024-02-15T04:45:18;11.80;;;3.80;;
14040;SDS011;7095;51.388;6.196;2024-02-15T04:47:59;17.57;;;3.63;;
14040;SDS011;7095;51.388;6.196;2024-02-15T04:50:29;10.53;;;3.20;;
14040;SDS011;7095;51.388;6.196;2024-02-15T04:52:57;8.77;;;4.23;;
14040;SDS011;7095;51.388;6.196;2024-02-15T04:55:27;12.27;;;4.20;;
14040;SDS011;7095;51.388;6.196;2024-02-15T04:57:58;8.00;;;3.90;;
14040;SDS011;7095;51.388;6.196;2024-02-15T05:00:27;12.00;;;3.67;;
14040;SDS011;7095;51.388;6.196;2024-02-15T05:02:55;14.37;;;4.33;;
14040;SDS011;7095;51.388;6.196;2024-02-15T05:05:25;15.20;;;3.60;;
14040;SDS011;7095;51.388;6.196;2024-02-15T05:07:54;9.13;;;3.00;;
14040;SDS011;7095;51.388;6.196;2024-02-15T05:10:23;12.67;;;3.33;;
14040;SDS011;7095;51.388;6.196;2024-02-15T05:12:53;10.07;;;3.73;;
14040;SDS011;7095;51.388;6.196;2024-02-15T05:15:22;5.37;;;3.07;;
14040;SDS011;7095;51.388;6.196;2024-02-15T05:17:52;11.67;;;3.53;;
14040;SDS011;7095;51.388;6.196;2024-02-15T05:20:21;12.90;;;3.57;;
14040;SDS011;7095;51.388;6.196;2024-02-15T05:22:52;11.97;;;3.30;;
14040;SDS011;7095;51.388;6.196;2024-02-15T05:25:20;9.40;;;3.70;;
14040;SDS011;7095;51.388;6.196;2024-02-15T05:27:54;14.40;;;4.07;;
14040;SDS011;7095;51.388;6.196;2024-02-15T05:30:24;9.63;;;3.53;;
14040;SDS011;7095;51.388;6.196;2024-02-15T05:32:53;10.83;;;3.70;;
14040;SDS011;7095;51.388;6.196;2024-02-15T05:35:23;6.47;;;3.33;;
14040;SDS011;7095;51.388;6.196;2024-02-15T05:37:53;10.83;;;3.63;;
14040;SDS011;7095;51.388;6.196;2024-02-15T05:40:23;7.73;;;3.67;;
14040;SDS011;7095;51.388;6.196;2024-02-15T05:42:56;16.90;;;3.23;;
14040;SDS011;7095;51.388;6.196;2024-02-15T05:45:29;9.90;;;3.67;;
14040;SDS011;7095;51.388;6.196;2024-02-15T05:48:00;10.17;;;3.30;;
14040;SDS011;7095;51.388;6.196;2024-02-15T05:50:34;10.77;;;3.30;;
14040;SDS011;7095;51.388;6.196;2024-02-15T05:53:03;10.27;;;3.40;;
14040;SDS011;7095;51.388;6.196;2024-02-15T05:55:31;12.20;;;3.90;;
14040;SDS011;7095;51.388;6.196;2024-02-15T05:58:02;6.67;;;3.10;;
14040;SDS011;7095;51.388;6.196;2024-02-15T06:00:31;10.50;;;3.13;;
14040;SDS011;7095;51.388;6.196;2024-02-15T06:03:01;14.40;;;3.80;;
14040;SDS011;7095;51.388;6.196;2024-02-15T06:05:30;10.93;;;3.53;;
14040;SDS011;7095;51.388;6.196;2024-02-15T06:07:59;11.97;;;3.57;;
14040;SDS011;7095;51.388;6.196;2024-02-15T06:10:28;8.87;;;3.70;;
14040;SDS011;7095;51.388;6.196;2024-02-15T06:12:57;13.17;;;4.73;;
14040;SDS011;7095;51.388;6.196;2024-02-15T06:15:27;9.57;;;3.47;;
14040;SDS011;7095;51.388;6.196;2024-02-15T06:17:56;13.53;;;3.67;;
14040;SDS011;7095;51.388;6.196;2024-02-15T06:20:25;13.10;;;4.57;;
14040;SDS011;7095;51.388;6.196;2024-02-15T06:22:56;11.50;;;3.37;;
14040;SDS011;7095;51.388;6.196;2024-02-15T06:25:24;11.80;;;3.43;;
14040;SDS011;7095;51.388;6.196;2024-02-15T06:27:53;16.07;;;4.00;;
14040;SDS011;7095;51.388;6.196;2024-02-15T06:30:28;10.60;;;3.70;;
14040;SDS011;7095;51.388;6.196;2024-02-15T06:33:16;9.17;;;4.10;;
14040;SDS011;7095;51.388;6.196;2024-02-15T06:36:05;11.40;;;4.20;;
14040;SDS011;7095;51.388;6.196;2024-02-15T06:39:07;14.33;;;4.20;;
14040;SDS011;7095;51.388;6.196;2024-02-15T06:41:53;11.53;;;4.07;;
14040;SDS011;7095;51.388;6.196;2024-02-15T06:44:21;11.10;;;3.93;;
14040;SDS011;7095;51.388;6.196;2024-02-15T06:46:52;14.77;;;4.20;;
14040;SDS011;7095;51.388;6.196;2024-02-15T06:49:20;18.13;;;4.83;;
14040;SDS011;7095;51.388;6.196;2024-02-15T06:51:49;10.50;;;4.10;;
14040;SDS011;7095;51.388;6.196;2024-02-15T06:54:18;16.70;;;4.97;;
14040;SDS011;7095;51.388;6.196;2024-02-15T06:56:46;15.47;;;4.43;;
14040;SDS011;7095;51.388;6.196;2024-02-15T06:59:15;11.87;;;3.90;;
14040;SDS011;7095;51.388;6.196;2024-02-15T07:01:45;17.70;;;4.40;;
14040;SDS011;7095;51.388;6.196;2024-02-15T07:04:15;11.70;;;4.00;;
14040;SDS011;7095;51.388;6.196;2024-02-15T07:06:43;17.00;;;4.07;;
14040;SDS011;7095;51.388;6.196;2024-02-15T07:09:15;13.13;;;4.30;;
14040;SDS011;7095;51.388;6.196;2024-02-15T07:11:45;14.33;;;4.37;;
14040;SDS011;7095;51.388;6.196;2024-02-15T07:14:17;12.53;;;4.40;;
14040;SDS011;7095;51.388;6.196;2024-02-15T07:16:47;14.23;;;4.07;;
14040;SDS011;7095;51.388;6.196;2024-02-15T07:19:17;13.33;;;3.90;;
14040;SDS011;7095;51.388;6.196;2024-02-15T07:21:47;12.63;;;4.23;;
14040;SDS011;7095;51.388;6.196;2024-02-15T07:24:16;8.17;;;3.80;;
14040;SDS011;7095;51.388;6.196;2024-02-15T07:26:46;11.50;;;4.40;;
14040;SDS011;7095;51.388;6.196;2024-02-15T07:29:14;10.70;;;4.00;;
14040;SDS011;7095;51.388;6.196;2024-02-15T07:31:43;10.07;;;4.57;;
14040;SDS011;7095;51.388;6.196;2024-02-15T07:34:12;14.60;;;4.03;;
14040;SDS011;7095;51.388;6.196;2024-02-15T07:36:43;10.40;;;4.17;;
14040;SDS011;7095;51.388;6.196;2024-02-15T07:39:12;10.37;;;4.40;;
14040;SDS011;7095;51.388;6.196;2024-02-15T07:41:51;11.50;;;4.13;;
14040;SDS011;7095;51.388;6.196;2024-02-15T07:44:19;11.30;;;4.03;;
14040;SDS011;7095;51.388;6.196;2024-02-15T07:46:48;16.43;;;3.70;;
14040;SDS011;7095;51.388;6.196;2024-02-15T07:49:17;11.77;;;4.10;;
14040;SDS011;7095;51.388;6.196;2024-02-15T07:51:47;9.00;;;4.10;;
14040;SDS011;7095;51.388;6.196;2024-02-15T07:54:20;9.90;;;3.33;;
14040;SDS011;7095;51.388;6.196;2024-02-15T07:56:49;17.97;;;4.53;;
14040;SDS011;7095;51.388;6.196;2024-02-15T07:59:18;11.73;;;3.93;;
14040;SDS011;7095;51.388;6.196;2024-02-15T08:01:47;12.23;;;3.83;;
14040;SDS011;7095;51.388;6.196;2024-02-15T08:04:17;11.93;;;4.47;;
14040;SDS011;7095;51.388;6.196;2024-02-15T08:06:48;15.30;;;4.60;;
14040;SDS011;7095;51.388;6.196;2024-02-15T08:09:19;15.30;;;4.30;;
14040;SDS011;7095;51.388;6.196;2024-02-15T08:11:51;13.50;;;4.30;;
14040;SDS011;7095;51.388;6.196;2024-02-15T08:14:19;14.33;;;4.70;;
14040;SDS011;7095;51.388;6.196;2024-02-15T08:16:48;12.53;;;4.07;;
14040;SDS011;7095;51.388;6.196;2024-02-15T08:19:17;9.23;;;3.87;;
14040;SDS011;7095;51.388;6.196;2024-02-15T08:21:45;10.87;;;4.03;;
14040;SDS011;7095;51.388;6.196;2024-02-15T08:24:19;8.47;;;3.77;;
14040;SDS011;7095;51.388;6.196;2024-02-15T08:26:49;14.43;;;3.93;;
14040;SDS011;7095;51.388;6.196;2024-02-15T08:29:19;12.73;;;3.57;;
14040;SDS011;7095;51.388;6.196;2024-02-15T08:31:47;8.10;;;3.53;;
14040;SDS011;7095;51.388;6.196;2024-02-15T08:34:16;6.77;;;3.60;;
14040;SDS011;7095;51.388;6.196;2024-02-15T08:36:47;9.07;;;3.53;;
14040;SDS011;7095;51.388;6.196;2024-02-15T08:39:16;9.30;;;3.50;;
14040;SDS011;7095;51.388;6.196;2024-02-15T08:41:46;11.03;;;3.47;;
14040;SDS011;7095;51.388;6.196;2024-02-15T08:44:15;8.13;;;3.83;;
14040;SDS011;7095;51.388;6.196;2024-02-15T08:46:47;9.20;;;3.23;;
14040;SDS011;7095;51.388;6.196;2024-02-15T08:49:18;13.10;;;4.17;;
14040;SDS011;7095;51.388;6.196;2024-02-15T08:51:48;11.37;;;3.93;;
14040;SDS011;7095;51.388;6.196;2024-02-15T08:54:17;8.80;;;3.83;;
14040;SDS011;7095;51.388;6.196;2024-02-15T08:56:47;11.27;;;3.63;;
14040;SDS011;7095;51.388;6.196;2024-02-15T08:59:15;19.73;;;4.60;;
14040;SDS011;7095;51.388;6.196;2024-02-15T09:01:44;9.40;;;4.47;;
14040;SDS011;7095;51.388;6.196;2024-02-15T09:04:13;11.50;;;4.80;;
14040;SDS011;7095;51.388;6.196;2024-02-15T09:06:44;11.90;;;4.20;;
14040;SDS011;7095;51.388;6.196;2024-02-15T09:09:12;16.03;;;5.10;;
14040;SDS011;7095;51.388;6.196;2024-02-15T09:11:41;9.27;;;4.50;;
14040;SDS011;7095;51.388;6.196;2024-02-15T09:14:11;13.00;;;5.27;;
14040;SDS011;7095;51.388;6.196;2024-02-15T09:16:40;10.00;;;4.77;;
14040;SDS011;7095;51.388;6.196;2024-02-15T09:19:09;11.37;;;4.43;;
14040;SDS011;7095;51.388;6.196;2024-02-15T09:21:37;8.13;;;4.43;;
14040;SDS011;7095;51.388;6.196;2024-02-15T09:24:06;12.47;;;4.37;;
14040;SDS011;7095;51.388;6.196;2024-02-15T09:26:35;8.43;;;4.57;;
14040;SDS011;7095;51.388;6.196;2024-02-15T09:29:03;6.93;;;4.27;;
14040;SDS011;7095;51.388;6.196;2024-02-15T09:31:36;7.17;;;4.10;;
14040;SDS011;7095;51.388;6.196;2024-02-15T09:34:04;10.40;;;4.07;;
14040;SDS011;7095;51.388;6.196;2024-02-15T09:36:34;8.43;;;3.93;;
14040;SDS011;7095;51.388;6.196;2024-02-15T09:39:04;10.70;;;3.80;;
14040;SDS011;7095;51.388;6.196;2024-02-15T09:41:33;13.23;;;4.83;;
14040;SDS011;7095;51.388;6.196;2024-02-15T09:44:02;8.97;;;4.13;;
14040;SDS011;7095;51.388;6.196;2024-02-15T09:46:32;11.87;;;4.20;;
14040;SDS011;7095;51.388;6.196;2024-02-15T09:49:04;7.90;;;4.43;;
14040;SDS011;7095;51.388;6.196;2024-02-15T09:51:34;8.70;;;3.60;;
14040;SDS011;7095;51.388;6.196;2024-02-15T09:54:04;12.27;;;4.00;;
14040;SDS011;7095;51.388;6.196;2024-02-15T09:56:36;9.20;;;3.63;;
14040;SDS011;7095;51.388;6.196;2024-02-15T09:59:05;10.30;;;3.50;;
14040;SDS011;7095;51.388;6.196;2024-02-15T10:01:34;8.00;;;3.77;;
14040;SDS011;7095;51.388;6.196;2024-02-15T10:04:06;6.93;;;3.50;;
14040;SDS011;7095;51.388;6.196;2024-02-15T10:06:35;10.70;;;3.30;;
14040;SDS011;7095;51.388;6.196;2024-02-15T10:09:23;8.70;;;3.77;;
14040;SDS011;7095;51.388;6.196;2024-02-15T10:11:56;11.83;;;3.90;;
14040;SDS011;7095;51.388;6.196;2024-02-15T10:14:25;13.30;;;4.43;;
14040;SDS011;7095;51.388;6.196;2024-02-15T10:16:55;8.37;;;3.40;;
14040;SDS011;7095;51.388;6.196;2024-02-15T10:19:26;7.97;;;3.40;;
14040;SDS011;7095;51.388;6.196;2024-02-15T10:22:05;5.50;;;3.10;;
14040;SDS011;7095;51.388;6.196;2024-02-15T10:24:35;10.03;;;3.83;;
14040;SDS011;7095;51.388;6.196;2024-02-15T10:27:07;6.63;;;2.80;;
14040;SDS011;7095;51.388;6.196;2024-02-15T10:29:37;10.37;;;3.20;;
14040;SDS011;7095;51.388;6.196;2024-02-15T10:32:07;9.47;;;3.07;;
14040;SDS011;7095;51.388;6.196;2024-02-15T10:34:44;9.33;;;3.30;;
14040;SDS011;7095;51.388;6.196;2024-02-15T10:37:13;9.10;;;3.23;;
14040;SDS011;7095;51.388;6.196;2024-02-15T10:39:43;7.77;;;3.20;;
14040;SDS011;7095;51.388;6.196;2024-02-15T10:42:14;6.20;;;2.67;;
14040;SDS011;7095;51.388;6.196;2024-02-15T10:44:45;13.83;;;3.07;;
14040;SDS011;7095;51.388;6.196;2024-02-15T10:47:16;6.27;;;2.63;;
14040;SDS011;7095;51.388;6.196;2024-02-15T10:49:48;8.77;;;2.70;;
14040;SDS011;7095;51.388;6.196;2024-02-15T10:52:17;7.30;;;2.70;;
14040;SDS011;7095;51.388;6.196;2024-02-15T10:54:50;7.10;;;2.50;;
14040;SDS011;7095;51.388;6.196;2024-02-15T10:57:26;7.97;;;2.83;;
14040;SDS011;7095;51.388;6.196;2024-02-15T10:59:59;7.90;;;2.93;;
14040;SDS011;7095;51.388;6.196;2024-02-15T11:02:37;5.93;;;2.80;;
14040;SDS011;7095;51.388;6.196;2024-02-15T11:05:12;6.27;;;2.57;;
14040;SDS011;7095;51.388;6.196;2024-02-15T11:07:48;6.87;;;2.53;;
14040;SDS011;7095;51.388;6.196;2024-02-15T11:10:17;4.90;;;2.43;;
14040;SDS011;7095;51.388;6.196;2024-02-15T11:12:45;6.60;;;2.43;;
14040;SDS011;7095;51.388;6.196;2024-02-15T11:21:20;5.27;;;1.60;;
14040;SDS011;7095;51.388;6.196;2024-02-15T11:24:24;3.87;;;1.77;;
14040;SDS011;7095;51.388;6.196;2024-02-15T11:26:57;3.67;;;1.53;;
14040;SDS011;7095;51.388;6.196;2024-02-15T11:29:48;6.20;;;1.80;;
14040;SDS011;7095;51.388;6.196;2024-02-15T11:32:39;2.90;;;1.30;;
14040;SDS011;7095;51.388;6.196;2024-02-15T11:35:12;5.93;;;1.50;;
14040;SDS011;7095;51.388;6.196;2024-02-15T11:37:51;5.97;;;1.63;;
14040;SDS011;7095;51.388;6.196;2024-02-15T11:40:22;5.40;;;1.47;;
14040;SDS011;7095;51.388;6.196;2024-02-15T11:42:51;2.97;;;1.50;;
14040;SDS011;7095;51.388;6.196;2024-02-15T11:45:21;2.17;;;0.97;;
14040;SDS011;7095;51.388;6.196;2024-02-15T11:47:50;2.73;;;1.33;;
14040;SDS011;7095;51.388;6.196;2024-02-15T11:50:21;5.27;;;1.63;;
14040;SDS011;7095;51.388;6.196;2024-02-15T11:53:00;4.43;;;1.27;;
14040;SDS011;7095;51.388;6.196;2024-02-15T11:55:33;5.10;;;1.10;;
14040;SDS011;7095;51.388;6.196;2024-02-15T11:58:02;3.17;;;1.07;;
14040;SDS011;7095;51.388;6.196;2024-02-15T12:00:44;2.53;;;1.03;;
14040;SDS011;7095;51.388;6.196;2024-02-15T12:03:35;5.43;;;1.00;;
14040;SDS011;7095;51.388;6.196;2024-02-15T12:06:33;5.97;;;1.60;;
14040;SDS011;7095;51.388;6.196;2024-02-15T12:09:22;3.13;;;0.97;;
14040;SDS011;7095;51.388;6.196;2024-02-15T12:12:09;1.47;;;1.17;;
14040;SDS011;7095;51.388;6.196;2024-02-15T12:14:58;4.60;;;1.67;;
14040;SDS011;7095;51.388;6.196;2024-02-15T12:17:46;2.83;;;1.00;;
14040;SDS011;7095;51.388;6.196;2024-02-15T12:20:33;3.13;;;1.33;;
14040;SDS011;7095;51.388;6.196;2024-02-15T12:23:03;4.87;;;1.50;;
14040;SDS011;7095;51.388;6.196;2024-02-15T12:25:37;2.20;;;0.90;;
14040;SDS011;7095;51.388;6.196;2024-02-15T12:28:06;6.77;;;1.30;;
14040;SDS011;7095;51.388;6.196;2024-02-15T12:30:35;4.83;;;1.00;;
14040;SDS011;7095;51.388;6.196;2024-02-15T12:33:09;3.00;;;0.87;;
14040;SDS011;7095;51.388;6.196;2024-02-15T12:35:40;5.23;;;1.83;;
14040;SDS011;7095;51.388;6.196;2024-02-15T12:38:11;4.37;;;1.10;;
14040;SDS011;7095;51.388;6.196;2024-02-15T12:40:46;3.17;;;1.30;;
14040;SDS011;7095;51.388;6.196;2024-02-15T12:43:15;6.40;;;1.10;;
14040;SDS011;7095;51.388;6.196;2024-02-15T12:45:44;2.40;;;1.03;;
14040;SDS011;7095;51.388;6.196;2024-02-15T12:48:13;2.70;;;0.97;;
14040;SDS011;7095;51.388;6.196;2024-02-15T12:50:45;4.50;;;1.10;;
14040;SDS011;7095;51.388;6.196;2024-02-15T12:53:20;4.77;;;1.53;;
14040;SDS011;7095;51.388;6.196;2024-02-15T12:55:54;4.50;;;1.33;;
14040;SDS011;7095;51.388;6.196;2024-02-15T12:58:26;4.43;;;1.77;;
14040;SDS011;7095;51.388;6.196;2024-02-15T13:00:56;4.30;;;1.20;;
14040;SDS011;7095;51.388;6.196;2024-02-15T13:03:25;3.80;;;1.40;;
14040;SDS011;7095;51.388;6.196;2024-02-15T13:05:54;5.37;;;1.63;;
14040;SDS011;7095;51.388;6.196;2024-02-15T13:08:24;3.53;;;1.20;;
14040;SDS011;7095;51.388;6.196;2024-02-15T13:10:54;3.17;;;1.40;;
14040;SDS011;7095;51.388;6.196;2024-02-15T13:13:23;7.17;;;1.50;;
14040;SDS011;7095;51.388;6.196;2024-02-15T13:15:52;4.07;;;1.20;;
14040;SDS011;7095;51.388;6.196;2024-02-15T13:18:21;7.57;;;1.10;;
14040;SDS011;7095;51.388;6.196;2024-02-15T13:20:49;3.47;;;1.30;;
14040;SDS011;7095;51.388;6.196;2024-02-15T13:23:20;3.33;;;1.30;;
14040;SDS011;7095;51.388;6.196;2024-02-15T13:25:54;5.13;;;1.40;;
14040;SDS011;7095;51.388;6.196;2024-02-15T13:28:29;4.20;;;1.60;;
14040;SDS011;7095;51.388;6.196;2024-02-15T13:30:58;2.07;;;0.90;;
14040;SDS011;7095;51.388;6.196;2024-02-15T13:33:27;5.67;;;1.10;;
14040;SDS011;7095;51.388;6.196;2024-02-15T13:35:59;3.33;;;1.20;;
14040;SDS011;7095;51.388;6.196;2024-02-15T13:38:29;4.73;;;1.50;;
14040;SDS011;7095;51.388;6.196;2024-02-15T13:41:00;2.30;;;1.20;;
14040;SDS011;7095;51.388;6.196;2024-02-15T13:43:30;3.57;;;1.20;;
14040;SDS011;7095;51.388;6.196;2024-02-15T13:45:59;2.20;;;1.10;;
14040;SDS011;7095;51.388;6.196;2024-02-15T13:48:28;3.23;;;1.20;;
14040;SDS011;7095;51.388;6.196;2024-02-15T13:50:59;2.27;;;1.07;;
14040;SDS011;7095;51.388;6.196;2024-02-15T13:53:27;9.07;;;1.67;;
14040;SDS011;7095;51.388;6.196;2024-02-15T13:55:56;2.57;;;1.40;;
14040;SDS011;7095;51.388;6.196;2024-02-15T13:58:26;3.33;;;1.33;;
14040;SDS011;7095;51.388;6.196;2024-02-15T14:00:55;3.07;;;1.30;;
14040;SDS011;7095;51.388;6.196;2024-02-15T14:03:24;2.00;;;1.00;;
14040;SDS011;7095;51.388;6.196;2024-02-15T14:05:53;2.73;;;1.33;;
14040;SDS011;7095;51.388;6.196;2024-02-15T14:08:22;3.87;;;1.20;;
14040;SDS011;7095;51.388;6.196;2024-02-15T14:10:52;2.93;;;1.70;;
14040;SDS011;7095;51.388;6.196;2024-02-15T14:13:23;5.40;;;1.40;;
14040;SDS011;7095;51.388;6.196;2024-02-15T14:15:53;1.73;;;0.90;;
14040;SDS011;7095;51.388;6.196;2024-02-15T14:18:23;2.43;;;1.20;;
14040;SDS011;7095;51.388;6.196;2024-02-15T14:20:52;6.33;;;1.40;;
14040;SDS011;7095;51.388;6.196;2024-02-15T14:23:20;2.97;;;1.17;;
14040;SDS011;7095;51.388;6.196;2024-02-15T14:25:52;2.43;;;1.27;;
14040;SDS011;7095;51.388;6.196;2024-02-15T14:28:27;3.77;;;1.50;;
14040;SDS011;7095;51.388;6.196;2024-02-15T14:30:58;3.13;;;1.10;;
14040;SDS011;7095;51.388;6.196;2024-02-15T14:33:44;6.83;;;1.50;;
14040;SDS011;7095;51.388;6.196;2024-02-15T14:36:13;6.50;;;1.40;;
14040;SDS011;7095;51.388;6.196;2024-02-15T14:38:42;2.60;;;1.20;;
14040;SDS011;7095;51.388;6.196;2024-02-15T14:41:11;4.20;;;1.43;;
14040;SDS011;7095;51.388;6.196;2024-02-15T14:43:41;2.87;;;1.33;;
14040;SDS011;7095;51.388;6.196;2024-02-15T14:46:12;3.07;;;1.37;;
14040;SDS011;7095;51.388;6.196;2024-02-15T14:48:41;4.20;;;1.30;;
14040;SDS011;7095;51.388;6.196;2024-02-15T14:51:14;3.47;;;1.33;;
14040;SDS011;7095;51.388;6.196;2024-02-15T14:53:47;10.47;;;1.50;;
14040;SDS011;7095;51.388;6.196;2024-02-15T14:56:16;3.30;;;1.53;;
14040;SDS011;7095;51.388;6.196;2024-02-15T14:58:46;5.00;;;0.83;;
14040;SDS011;7095;51.388;6.196;2024-02-15T15:01:16;5.43;;;1.30;;
14040;SDS011;7095;51.388;6.196;2024-02-15T15:03:53;5.53;;;1.50;;
14040;SDS011;7095;51.388;6.196;2024-02-15T15:06:25;6.63;;;1.73;;
14040;SDS011;7095;51.388;6.196;2024-02-15T15:09:11;7.17;;;1.80;;
14040;SDS011;7095;51.388;6.196;2024-02-15T15:11:57;6.03;;;1.70;;
14040;SDS011;7095;51.388;6.196;2024-02-15T15:14:44;4.17;;;1.60;;
14040;SDS011;7095;51.388;6.196;2024-02-15T15:17:14;2.13;;;1.07;;
14040;SDS011;7095;51.388;6.196;2024-02-15T15:19:45;7.67;;;1.63;;
14040;SDS011;7095;51.388;6.196;2024-02-15T15:22:14;5.83;;;1.27;;